Time;durP1;ratioP1;P1;durP2;ratioP2;P2;SDS_P1;SDS_P2;PMS_P1;PMS_P2;Temp;Humidity;BMP_temperature;BMP_pressure;BME280_temperature;BME280_humidity;BME280_pressure;Samples;Min_cycle;Max_cycle;Signal;HPM_P1;HPM_P2
2023/01/23 15:12:06;;;;;;;16.27;10.73;;;;;;;11.65;60.45;100927.03;5089961;27;20763;-76
2023/01/23 15:14:39;;;;;;;18.40;11.50;;;;;;;7.89;76.92;100934.03;5090266;28;20033;-76
2023/01/23 15:17:11;;;;;;;18.17;11.63;;;;;;;6.07;87.38;100937.16;5088681;28;20421;-73
2023/01/23 15:19:37;;;;;;;18.43;12.27;;;;;;;4.27;100.00;100957.25;5089483;28;20020;-75
2023/01/23 15:22:19;;;;;;;20.43;11.63;;;;;;;3.48;100.00;100960.28;5088266;28;20024;-75
2023/01/23 15:24:45;;;;;;;25.13;15.13;;;;;;;2.81;100.00;100963.09;5088294;28;20035;-74
2023/01/23 15:27:31;;;;;;;32.30;26.53;;;;;;;2.49;100.00;100957.31;5088263;28;20020;-75
2023/01/23 15:30:31;;;;;;;28.77;19.70;;;;;;;2.32;100.00;100959.34;5088034;28;20027;-75
2023/01/23 15:32:58;;;;;;;23.50;13.97;;;;;;;2.12;100.00;100966.78;5089462;28;20679;-77
2023/01/23 15:35:24;;;;;;;32.50;19.20;;;;;;;1.83;100.00;100956.41;5088341;28;20257;-77
2023/01/23 15:37:54;;;;;;;20.87;12.80;;;;;;;1.84;100.00;100955.44;5087965;28;20261;-77
2023/01/23 15:40:26;;;;;;;23.53;12.47;;;;;;;1.87;100.00;100963.16;5070854;28;20077;-73
2023/01/23 15:43:07;;;;;;;148.37;95.60;;;;;;;1.69;100.00;100963.38;5089085;28;20260;-85
2023/01/23 15:45:33;;;;;;;156.17;142.53;;;;;;;1.83;100.00;100969.56;5087657;28;20260;-74
2023/01/23 15:47:59;;;;;;;58.33;52.50;;;;;;;1.99;100.00;100971.13;5088702;28;20271;-74
2023/01/23 15:50:25;;;;;;;28.17;19.87;;;;;;;1.95;100.00;100968.81;5088824;28;20641;-74
2023/01/23 15:52:54;;;;;;;22.17;11.90;;;;;;;1.94;100.00;100972.38;5088461;28;20055;-74
2023/01/23 15:55:24;;;;;;;21.43;11.03;;;;;;;1.85;100.00;100971.16;5088045;28;20770;-74
2023/01/23 15:57:52;;;;;;;21.37;12.63;;;;;;;1.93;100.00;100971.53;5086904;28;20261;-75
2023/01/23 16:00:25;;;;;;;20.80;10.23;;;;;;;1.96;100.00;100976.59;5087517;28;20772;-74
2023/01/23 16:02:52;;;;;;;20.13;9.93;;;;;;;1.94;100.00;100972.38;5086129;28;20344;-76
2023/01/23 16:05:19;;;;;;;19.50;9.40;;;;;;;2.07;100.00;100978.56;5087894;28;20110;-76
2023/01/23 16:07:46;;;;;;;18.73;9.33;;;;;;;1.99;100.00;100971.13;5088491;28;20733;-72
2023/01/23 16:10:24;;;;;;;18.07;9.30;;;;;;;2.07;100.00;100978.56;5084648;28;20325;-75
2023/01/23 16:12:56;;;;;;;18.87;9.37;;;;;;;1.97;100.00;100975.66;5088885;28;20268;-75
2023/01/23 16:15:29;;;;;;;17.60;9.87;;;;;;;1.95;100.00;100964.38;5088876;28;20257;-77
2023/01/23 16:17:55;;;;;;;17.98;8.88;;;;;;;2.16;100.00;100970.06;5076537;28;20260;-75
2023/01/23 16:20:25;;;;;;;19.07;10.13;;;;;;;1.96;100.00;100976.59;5100812;28;20021;-76
2023/01/23 16:22:55;;;;;;;14.63;8.07;;;;;;;2.11;100.00;100974.78;5065092;28;20265;-75
2023/01/23 16:25:38;;;;;;;17.87;8.70;;;;;;;2.12;100.00;100982.59;5055443;28;20273;-76
2023/01/23 16:28:05;;;;;;;17.90;9.47;;;;;;;1.93;100.00;100975.97;5055248;28;20747;-76
2023/01/23 16:30:30;;;;;;;15.83;8.50;;;;;;;2.03;100.00;100972.63;5073764;28;20280;-75
2023/01/23 16:32:56;;;;;;;17.93;8.83;;;;;;;1.94;100.00;100983.78;5081140;28;20288;-75
2023/01/23 16:35:24;;;;;;;20.37;9.50;;;;;;;1.94;100.00;100981.13;5091117;28;20035;-76
2023/01/23 16:37:52;;;;;;;16.87;8.67;;;;;;;1.98;100.00;100994.94;5075032;28;20097;-76
2023/01/23 16:40:23;;;;;;;19.13;9.37;;;;;;;1.90;100.00;100987.53;5075124;28;20288;-77
2023/01/23 16:42:51;;;;;;;17.43;9.13;;;;;;;2.03;100.00;100985.81;5085864;28;20269;-76
2023/01/23 16:45:28;;;;;;;18.57;9.83;;;;;;;2.13;100.00;100992.22;5095187;28;20753;-75
2023/01/23 16:47:55;;;;;;;19.53;9.70;;;;;;;1.97;100.00;100993.25;5090081;28;20596;-75
2023/01/23 16:50:31;;;;;;;18.07;9.60;;;;;;;2.02;100.00;100997.31;5066102;28;20281;-77
2023/01/23 16:53:05;;;;;;;19.40;10.20;;;;;;;2.04;100.00;101000.69;5081037;28;20260;-77
2023/01/23 16:55:40;;;;;;;19.83;10.10;;;;;;;1.99;100.00;100989.59;5078482;28;20653;-78
2023/01/23 16:58:12;;;;;;;19.37;9.87;;;;;;;2.13;100.00;100999.28;5088544;28;20292;-77
2023/01/23 17:00:40;;;;;;;21.60;10.03;;;;;;;2.02;100.00;101002.59;5075141;28;20727;-78
2023/01/23 17:03:08;;;;;;;21.07;10.60;;;;;;;2.17;100.00;101006.06;5074660;28;20333;-76
2023/01/23 17:05:35;;;;;;;20.47;10.27;;;;;;;2.18;100.00;101013.88;5073748;28;20350;-78
2023/01/23 17:08:15;;;;;;;19.63;10.27;;;;;;;2.34;100.00;101019.00;5074865;28;20261;-77
2023/01/23 17:10:41;;;;;;;20.47;10.30;;;;;;;2.48;100.00;101018.97;5074565;28;20789;-77
2023/01/23 17:13:10;;;;;;;20.40;10.63;;;;;;;2.48;100.00;101002.28;5074961;28;20265;-77
2023/01/23 17:15:36;;;;;;;24.20;10.97;;;;;;;2.57;100.00;101008.75;5074484;28;20032;-76
2023/01/23 17:18:02;;;;;;;20.50;10.60;;;;;;;2.59;100.00;101018.25;5073234;28;20257;-78
2023/01/23 17:20:31;;;;;;;20.90;10.90;;;;;;;2.64;100.00;101017.97;5074828;28;20261;-79
2023/01/23 17:22:57;;;;;;;21.13;10.70;;;;;;;2.47;100.00;101014.63;5074786;28;20547;-78
2023/01/23 17:25:26;;;;;;;21.43;10.97;;;;;;;2.32;100.00;101004.19;5074731;28;20268;-79
2023/01/23 17:27:52;;;;;;;20.13;10.90;;;;;;;2.50;100.00;101017.06;5074321;28;20280;-78
2023/01/23 17:30:24;;;;;;;21.57;10.47;;;;;;;2.44;100.00;101019.25;5071969;28;20282;-78
2023/01/23 17:32:54;;;;;;;20.63;10.93;;;;;;;2.47;100.00;101017.28;5073090;28;20265;-77
2023/01/23 17:35:26;;;;;;;22.10;10.90;;;;;;;2.52;100.00;101006.44;5073860;28;20266;-77
2023/01/23 17:37:56;;;;;;;21.50;10.37;;;;;;;2.50;100.00;101006.53;5074365;28;20261;-77
2023/01/23 17:40:24;;;;;;;29.80;13.50;;;;;;;2.47;100.00;101021.69;5073745;28;20257;-77
2023/01/23 17:42:49;;;;;;;26.03;13.10;;;;;;;2.48;100.00;101023.41;5073541;28;20284;-77
2023/01/23 17:45:18;;;;;;;22.73;11.50;;;;;;;2.58;100.00;101021.00;5072309;28;20666;-77
2023/01/23 17:47:47;;;;;;;22.07;11.20;;;;;;;2.66;100.00;101016.06;5072376;28;20074;-78
2023/01/23 17:50:21;;;;;;;21.97;11.10;;;;;;;2.53;100.00;101032.72;5071075;28;20821;-77
2023/01/23 17:52:47;;;;;;;26.00;11.90;;;;;;;2.51;100.00;101025.84;5070989;28;20280;-77
2023/01/23 17:55:19;;;;;;;24.70;12.57;;;;;;;2.61;100.00;101026.09;5071049;28;20275;-77
2023/01/23 17:57:44;;;;;;;27.50;12.33;;;;;;;2.50;100.00;101025.00;5072192;28;20647;-78
2023/01/23 18:00:19;;;;;;;26.73;11.93;;;;;;;2.39;100.00;101024.00;5072193;28;20254;-77
2023/01/23 18:02:47;;;;;;;24.50;11.80;;;;;;;2.48;100.00;101026.03;5073410;28;20112;-78
2023/01/23 18:05:13;;;;;;;22.47;13.40;;;;;;;2.57;100.00;101028.06;5073704;28;20714;-77
2023/01/23 18:07:39;;;;;;;25.87;14.43;;;;;;;2.63;100.00;101029.47;5073348;28;20258;-77
2023/01/23 18:10:08;;;;;;;24.70;13.63;;;;;;;2.61;100.00;101039.28;5073178;28;20288;-77
2023/01/23 18:12:58;;;;;;;23.27;12.70;;;;;;;2.60;100.00;101033.16;5072283;28;20470;-77
2023/01/23 18:15:46;;;;;;;27.23;13.73;;;;;;;2.42;100.00;101035.16;5063450;28;20273;-77
2023/01/23 18:18:36;;;;;;;25.17;12.63;;;;;;;2.38;100.00;101031.06;5052301;28;20262;-77
2023/01/23 18:21:04;;;;;;;24.67;12.20;;;;;;;2.35;100.00;101039.16;5052147;28;20265;-77
2023/01/23 18:23:31;;;;;;;26.70;12.93;;;;;;;2.48;100.00;101040.06;5053670;28;20628;-77
2023/01/23 18:26:21;;;;;;;23.93;12.00;;;;;;;2.47;100.00;101040.16;5053582;28;20262;-77
2023/01/23 18:28:46;;;;;;;25.03;12.17;;;;;;;2.47;100.00;101046.28;5053504;28;20250;-78
2023/01/23 18:31:25;;;;;;;23.23;11.90;;;;;;;2.43;100.00;101041.28;5053485;28;20451;-77
2023/01/23 18:34:21;;;;;;;25.23;12.30;;;;;;;2.44;100.00;101041.19;5053438;28;20059;-82
2023/01/23 18:37:01;;;;;;;26.47;14.23;;;;;;;2.34;100.00;101033.97;5052085;28;20266;-79
2023/01/23 18:39:53;;;;;;;23.70;13.40;;;;;;;2.34;100.00;101044.53;5053182;28;20357;-78
2023/01/23 18:42:37;;;;;;;25.73;13.07;;;;;;;2.42;100.00;101042.28;5053432;28;20258;-78
2023/01/23 18:45:15;;;;;;;23.03;11.70;;;;;;;2.47;100.00;101045.44;5052557;28;20258;-75
2023/01/23 18:47:41;;;;;;;25.03;13.23;;;;;;;2.45;100.00;101032.34;5052760;28;20315;-75
2023/01/23 18:50:14;;;;;;;26.60;13.63;;;;;;;2.49;100.00;101040.91;5052721;28;20790;-75
2023/01/23 18:53:04;;;;;;;41.30;22.58;;;;;;;2.62;100.00;101030.44;5051488;28;20735;-75
2023/01/23 18:56:38;;;;;;;30.03;15.20;;;;;;;2.45;100.00;101042.06;5052827;28;20475;-75
2023/01/23 18:59:06;;;;;;;29.00;13.43;;;;;;;2.38;100.00;101046.03;4986586;28;20260;-75
2023/01/23 19:01:53;;;;;;;26.80;13.37;;;;;;;2.37;100.00;101039.91;4990508;28;20812;-76
2023/01/23 19:04:36;;;;;;;26.77;14.20;;;;;;;2.38;100.00;101033.69;4990390;28;20622;-75
2023/01/23 19:07:02;;;;;;;26.63;13.63;;;;;;;2.34;100.00;101041.88;4990938;28;20684;-75
2023/01/23 19:09:32;;;;;;;29.93;15.20;;;;;;;2.38;100.00;101036.34;4974202;28;20765;-75
2023/01/23 19:12:23;;;;;;;25.93;12.97;;;;;;;2.46;100.00;101047.22;4990659;28;20366;-75
2023/01/23 19:15:22;;;;;;;32.27;18.00;;;;;;;2.65;100.00;101049.56;4990234;28;20304;-76
2023/01/23 19:18:13;;;;;;;29.90;15.00;;;;;;;2.73;100.00;101052.53;4974651;28;20272;-76
2023/01/23 19:20:49;;;;;;;26.30;13.90;;;;;;;2.61;100.00;101045.41;4973915;28;20322;-76
2023/01/23 19:23:30;;;;;;;28.53;15.43;;;;;;;2.54;100.00;101038.81;4990883;28;20681;-75
2023/01/23 19:25:56;;;;;;;41.20;21.10;;;;;;;2.62;100.00;101043.63;4990503;28;20260;-75
2023/01/23 19:28:21;;;;;;;32.73;16.87;;;;;;;2.49;100.00;101048.84;4973925;28;20781;-75
2023/01/23 19:30:47;;;;;;;28.30;14.87;;;;;;;2.54;100.00;101047.59;5045893;28;20116;-75
2023/01/23 19:33:17;;;;;;;30.63;15.20;;;;;;;2.61;100.00;101048.06;5051627;28;20103;-75
2023/01/23 19:35:44;;;;;;;28.30;14.13;;;;;;;2.66;100.00;101039.81;5050982;28;20120;-75
2023/01/23 19:38:10;;;;;;;32.83;15.23;;;;;;;2.55;100.00;101051.06;5051408;28;20254;-76
2023/01/23 19:40:35;;;;;;;32.87;16.97;;;;;;;2.54;100.00;101044.94;5051296;28;20288;-75
2023/01/23 19:43:04;;;;;;;32.67;16.10;;;;;;;2.51;100.00;101044.31;5052021;28;20104;-75
2023/01/23 19:45:29;;;;;;;33.33;16.13;;;;;;;2.45;100.00;101045.53;5051610;28;20033;-80
2023/01/23 19:47:55;;;;;;;34.73;15.83;;;;;;;2.57;100.00;101061.53;5050564;28;20265;-79
2023/01/23 19:50:21;;;;;;;33.83;16.63;;;;;;;2.59;100.00;101051.72;5050164;28;20116;-74
2023/01/23 19:52:48;;;;;;;33.73;16.30;;;;;;;2.64;100.00;101047.00;5049969;28;20029;-74
2023/01/23 19:55:22;;;;;;;33.83;16.67;;;;;;;2.62;100.00;101056.81;5051287;28;20951;-74
2023/01/23 19:57:47;;;;;;;27.97;14.13;;;;;;;2.63;100.00;101055.88;5052989;28;20275;-74
2023/01/23 20:00:14;;;;;;;29.20;14.60;;;;;;;2.60;100.00;101074.53;5054672;28;20731;-74
2023/01/23 20:02:40;;;;;;;32.13;15.70;;;;;;;2.53;100.00;101064.38;5054725;28;20028;-75
2023/01/23 20:05:06;;;;;;;34.50;17.63;;;;;;;2.54;100.00;101066.06;5055879;28;20635;-75
2023/01/23 20:07:32;;;;;;;28.83;14.73;;;;;;;2.43;100.00;101065.03;5073646;28;20020;-72
2023/01/23 20:09:57;;;;;;;34.43;17.90;;;;;;;2.41;100.00;101059.03;5073783;28;20316;-72
2023/01/23 20:12:23;;;;;;;30.23;15.50;;;;;;;2.48;100.00;101073.53;5073939;28;20025;-73
2023/01/23 20:14:49;;;;;;;29.80;14.87;;;;;;;2.47;100.00;101071.84;5073756;28;20021;-72
2023/01/23 20:17:14;;;;;;;31.53;15.20;;;;;;;2.43;100.00;101072.97;5088786;28;20028;-72
2023/01/23 20:19:40;;;;;;;30.17;15.23;;;;;;;2.49;100.00;101072.59;5076109;28;20027;-73
2023/01/23 20:22:05;;;;;;;30.10;15.33;;;;;;;2.59;100.00;101080.75;5072347;28;20044;-72
2023/01/23 20:24:31;;;;;;;31.27;15.27;;;;;;;2.45;100.00;101076.34;5082365;28;20020;-72
2023/01/23 20:26:56;;;;;;;31.03;16.23;;;;;;;2.42;100.00;101066.84;5081804;28;20103;-72
2023/01/23 20:29:22;;;;;;;30.70;14.83;;;;;;;2.47;100.00;101071.84;5065967;28;20025;-72
2023/01/23 20:31:50;;;;;;;31.40;15.30;;;;;;;2.52;100.00;101086.44;5072308;28;20054;-72
2023/01/23 20:34:16;;;;;;;33.17;15.37;;;;;;;2.49;100.00;101089.28;5074032;28;20765;-73
2023/01/23 20:36:41;;;;;;;33.00;17.17;;;;;;;2.52;100.00;101089.09;5073620;28;20261;-73
2023/01/23 20:39:07;;;;;;;34.77;16.00;;;;;;;2.53;100.00;101080.22;5073617;28;20024;-73
2023/01/23 20:41:33;;;;;;;32.77;15.23;;;;;;;2.53;100.00;101092.56;5073405;28;20378;-73
2023/01/23 20:43:59;;;;;;;31.20;15.87;;;;;;;2.48;100.00;101090.22;5073600;28;20028;-72
2023/01/23 20:46:25;;;;;;;32.00;17.07;;;;;;;2.43;100.00;101094.06;5073509;28;20016;-72
2023/01/23 20:48:51;;;;;;;31.87;15.40;;;;;;;2.52;100.00;101082.94;5073155;28;20268;-72
2023/01/23 20:51:17;;;;;;;34.63;17.23;;;;;;;2.61;100.00;101087.63;5073338;28;20032;-72
2023/01/23 20:53:43;;;;;;;36.30;18.77;;;;;;;2.58;100.00;101092.25;5090107;28;20065;-73
2023/01/23 20:56:11;;;;;;;34.70;18.33;;;;;;;2.52;100.00;101088.22;5068063;28;20033;-72
2023/01/23 21:02:21;;;;;;;49.40;23.70;;;;;;;2.57;100.00;101083.50;5077527;28;20691;-73
2023/01/23 21:04:15;;;;;;;33.67;16.43;;;;;;;2.58;100.00;101085.19;5066988;28;20331;-73
2023/01/23 21:06:41;;;;;;;32.37;15.57;;;;;;;2.53;100.00;101082.00;5072693;28;20262;-74
2023/01/23 21:09:06;;;;;;;28.93;14.70;;;;;;;2.50;100.00;101098.88;5079777;28;20051;-73
2023/01/23 21:11:32;;;;;;;31.10;15.20;;;;;;;2.45;100.00;101102.75;5072860;28;20052;-73
2023/01/23 21:13:59;;;;;;;29.93;15.37;;;;;;;2.40;100.00;101102.19;5073144;28;20393;-72
2023/01/23 21:16:26;;;;;;;30.20;15.40;;;;;;;2.40;100.00;101112.75;5072974;28;20031;-73
2023/01/23 21:18:52;;;;;;;30.00;14.53;;;;;;;2.51;100.00;101107.66;5073359;28;20285;-73
2023/01/23 21:21:20;;;;;;;36.73;16.30;;;;;;;2.53;100.00;101114.53;5071981;28;20279;-73
2023/01/23 21:23:50;;;;;;;34.60;15.83;;;;;;;2.41;100.00;101107.38;5072697;28;20796;-73
2023/01/23 21:26:18;;;;;;;32.27;15.53;;;;;;;2.37;100.00;101111.16;5072705;28;20249;-73
2023/01/23 21:28:46;;;;;;;30.50;15.13;;;;;;;2.32;100.00;101112.38;5073322;28;20272;-73
2023/01/23 21:31:20;;;;;;;34.03;16.70;;;;;;;2.39;100.00;101109.28;5072879;28;20281;-73
2023/01/23 21:33:47;;;;;;;32.50;15.53;;;;;;;2.50;100.00;101114.72;5072995;28;20319;-73
2023/01/23 21:36:15;;;;;;;28.57;14.93;;;;;;;2.52;100.00;101118.09;5072787;28;20025;-73
2023/01/23 21:38:41;;;;;;;31.37;14.67;;;;;;;2.66;100.00;101113.72;5072858;28;20258;-73
2023/01/23 21:41:06;;;;;;;34.47;15.03;;;;;;;2.61;100.00;101119.31;5072716;28;20257;-73
2023/01/23 21:43:33;;;;;;;29.57;14.47;;;;;;;2.60;100.00;101112.34;5072812;28;20257;-73
2023/01/23 21:45:59;;;;;;;31.87;14.03;;;;;;;2.66;100.00;101127.75;5072644;28;20032;-73
2023/01/23 21:48:27;;;;;;;29.87;14.77;;;;;;;2.73;100.00;101115.03;5072745;28;20249;-73
2023/01/23 21:51:12;;;;;;;31.10;16.50;;;;;;;2.73;100.00;101117.69;5072667;28;20025;-73
2023/01/23 21:53:39;;;;;;;29.43;15.80;;;;;;;2.70;100.00;101133.72;5072833;28;20262;-73
2023/01/23 21:56:06;;;;;;;31.63;14.80;;;;;;;2.63;100.00;101124.50;5072409;28;20352;-73
2023/01/23 21:58:33;;;;;;;32.17;17.03;;;;;;;2.59;100.00;101126.47;5071363;28;20352;-73
2023/01/23 22:03:49;;;;;;;30.50;15.60;;;;;;;2.66;100.00;101121.63;5072661;28;20346;-72
2023/01/23 22:06:16;;;;;;;30.70;15.23;;;;;;;2.70;100.00;101131.06;5072291;28;20265;-73
2023/01/23 22:08:42;;;;;;;30.97;14.07;;;;;;;2.65;100.00;101126.09;5072405;28;20257;-73
2023/01/23 22:11:09;;;;;;;29.80;14.03;;;;;;;2.66;100.00;101125.13;5071968;28;20777;-73
2023/01/23 22:13:35;;;;;;;32.47;16.00;;;;;;;2.62;100.00;101122.78;5072207;28;20376;-73
2023/01/23 22:16:02;;;;;;;27.03;13.90;;;;;;;2.66;100.00;101116.34;5072143;28;20619;-73
2023/01/23 22:18:28;;;;;;;29.03;14.50;;;;;;;2.52;100.00;101118.09;5072312;28;20261;-73
2023/01/23 22:20:59;;;;;;;29.20;14.00;;;;;;;2.49;100.00;101115.66;5071526;28;20352;-73
2023/01/23 22:23:26;;;;;;;27.50;13.47;;;;;;;2.49;100.00;101118.28;5072146;28;20253;-73
2023/01/23 22:25:57;;;;;;;28.83;13.60;;;;;;;2.64;100.00;101124.41;5071896;28;20319;-73
2023/01/23 22:28:23;;;;;;;28.03;13.43;;;;;;;2.60;100.00;101116.75;5072005;28;20265;-72
2023/01/23 22:30:49;;;;;;;24.80;12.70;;;;;;;2.49;100.00;101125.38;5071858;28;20276;-73
2023/01/23 22:33:16;;;;;;;25.87;12.53;;;;;;;2.61;100.00;101119.31;5071971;28;20256;-73
2023/01/23 22:35:42;;;;;;;24.73;12.63;;;;;;;2.60;100.00;101107.06;5071854;28;20822;-73
2023/01/23 22:38:10;;;;;;;28.23;12.80;;;;;;;2.54;100.00;101115.34;5071673;28;20498;-73
2023/01/23 22:40:36;;;;;;;26.47;13.77;;;;;;;2.51;100.00;101120.84;5071616;28;20253;-73
2023/01/23 22:43:03;;;;;;;28.27;13.20;;;;;;;2.59;100.00;101117.72;5071796;28;20264;-73
2023/01/23 22:45:29;;;;;;;26.17;12.70;;;;;;;2.59;100.00;101130.91;5070453;28;20350;-73
2023/01/23 22:47:54;;;;;;;26.07;12.87;;;;;;;2.58;100.00;101132.69;5071771;28;20738;-73
2023/01/23 22:50:20;;;;;;;25.87;12.97;;;;;;;2.55;100.00;101128.44;5071626;28;20020;-73
2023/01/23 22:52:46;;;;;;;30.23;13.17;;;;;;;2.65;100.00;101135.81;5071636;28;20024;-73
2023/01/23 22:55:12;;;;;;;26.93;12.67;;;;;;;2.51;100.00;101131.41;5071503;28;20359;-73
2023/01/23 22:57:38;;;;;;;24.63;12.13;;;;;;;2.41;100.00;101141.69;5071774;28;20024;-73
2023/01/23 23:00:08;;;;;;;26.50;13.50;;;;;;;2.34;100.00;101142.13;5071504;28;20261;-73
2023/01/23 23:02:36;;;;;;;26.80;13.13;;;;;;;2.35;100.00;101146.47;5071539;28;20710;-73
2023/01/23 23:05:03;;;;;;;30.33;13.57;;;;;;;2.37;100.00;101155.16;5071529;28;20285;-73
2023/01/23 23:07:29;;;;;;;26.70;13.43;;;;;;;2.29;100.00;101149.50;5070260;28;20792;-73
2023/01/23 23:09:54;;;;;;;27.63;13.07;;;;;;;2.24;100.00;101144.50;5071140;28;20316;-73
2023/01/23 23:12:20;;;;;;;26.53;12.30;;;;;;;2.26;100.00;101155.81;5071552;28;20032;-73
2023/01/23 23:14:45;;;;;;;24.90;12.87;;;;;;;2.31;100.00;101152.91;5071430;28;20020;-73
2023/01/23 23:17:11;;;;;;;24.80;12.50;;;;;;;2.43;100.00;101154.75;5071274;28;20036;-73
2023/01/23 23:19:36;;;;;;;25.70;12.90;;;;;;;2.54;100.00;101144.38;5071488;28;20032;-73
2023/01/23 23:22:02;;;;;;;24.30;12.40;;;;;;;2.45;100.00;101139.69;5071376;28;20055;-73
2023/01/23 23:24:27;;;;;;;23.17;11.70;;;;;;;2.47;100.00;101138.66;5071308;28;20024;-73
2023/01/23 23:26:53;;;;;;;23.80;12.03;;;;;;;2.55;100.00;101146.91;5071305;28;20081;-73
2023/01/23 23:29:18;;;;;;;26.27;11.93;;;;;;;2.52;100.00;101149.78;5070253;28;20078;-73
2023/01/23 23:31:50;;;;;;;22.17;10.17;;;;;;;2.52;100.00;101155.06;5070705;28;20021;-73
2023/01/23 23:34:19;;;;;;;22.87;10.43;;;;;;;2.59;100.00;101149.38;5075381;28;20547;-73
2023/01/23 23:36:44;;;;;;;22.20;10.97;;;;;;;2.55;100.00;101146.06;5075219;28;20277;-73
2023/01/23 23:39:10;;;;;;;21.63;10.20;;;;;;;2.48;100.00;101142.13;5074006;28;20261;-73
2023/01/23 23:41:36;;;;;;;23.33;11.53;;;;;;;2.49;100.00;101147.31;5075327;28;20020;-73
2023/01/23 23:44:01;;;;;;;24.93;12.20;;;;;;;2.43;100.00;101145.03;5075457;28;20052;-73
2023/01/23 23:46:27;;;;;;;23.43;12.63;;;;;;;2.44;100.00;101149.38;5075160;28;20077;-73
2023/01/23 23:48:52;;;;;;;27.53;12.30;;;;;;;2.39;100.00;101158.53;5074084;28;20111;-73
2023/01/23 23:51:19;;;;;;;25.27;11.80;;;;;;;2.44;100.00;101156.44;5075262;28;20035;-73
2023/01/23 23:53:45;;;;;;;25.13;12.03;;;;;;;2.41;100.00;101164.59;5073537;28;20521;-73
2023/01/23 23:56:26;;;;;;;22.40;11.50;;;;;;;2.32;100.00;101158.06;5074972;28;20726;-73
2023/01/23 23:58:52;;;;;;;23.73;11.07;;;;;;;2.39;100.00;101158.53;5075212;28;20261;-73
